sensor_id;sensor_type;location;lat;lon;timestamp;P1;durP1;ratioP1;P2;durP2;ratioP2
63534;SDS011;55128;50.230;18.944;2023-06-14T00:02:44;14.35;;;10.05;;
63534;SDS011;55128;50.230;18.944;2023-06-14T00:07:44;17.17;;;11.30;;
63534;SDS011;55128;50.230;18.944;2023-06-14T00:12:45;14.38;;;10.77;;
63534;SDS011;55128;50.230;18.944;2023-06-14T00:17:45;14.23;;;11.40;;
63534;SDS011;55128;50.230;18.944;2023-06-14T00:22:47;13.80;;;10.52;;
63534;SDS011;55128;50.230;18.944;2023-06-14T00:27:48;15.02;;;10.93;;
63534;SDS011;55128;50.230;18.944;2023-06-14T00:32:48;15.75;;;10.55;;
63534;SDS011;55128;50.230;18.944;2023-06-14T00:37:49;13.55;;;10.15;;
63534;SDS011;55128;50.230;18.944;2023-06-14T00:42:50;11.53;;;9.77;;
63534;SDS011;55128;50.230;18.944;2023-06-14T00:47:50;11.63;;;8.60;;
63534;SDS011;55128;50.230;18.944;2023-06-14T00:52:55;11.18;;;8.85;;
63534;SDS011;55128;50.230;18.944;2023-06-14T00:57:56;12.45;;;8.35;;
63534;SDS011;55128;50.230;18.944;2023-06-14T01:02:57;10.23;;;8.13;;
63534;SDS011;55128;50.230;18.944;2023-06-14T01:13:20;10.77;;;8.40;;
63534;SDS011;55128;50.230;18.944;2023-06-14T01:18:23;10.20;;;7.25;;
63534;SDS011;55128;50.230;18.944;2023-06-14T01:23:25;10.30;;;7.93;;
63534;SDS011;55128;50.230;18.944;2023-06-14T01:28:32;10.10;;;7.15;;
63534;SDS011;55128;50.230;18.944;2023-06-14T01:33:33;9.48;;;7.32;;
63534;SDS011;55128;50.230;18.944;2023-06-14T01:38:36;11.18;;;8.13;;
63534;SDS011;55128;50.230;18.944;2023-06-14T01:43:37;9.90;;;7.18;;
63534;SDS011;55128;50.230;18.944;2023-06-14T01:48:39;9.93;;;7.68;;
63534;SDS011;55128;50.230;18.944;2023-06-14T01:53:40;10.65;;;8.43;;
63534;SDS011;55128;50.230;18.944;2023-06-14T01:58:40;13.88;;;8.70;;
63534;SDS011;55128;50.230;18.944;2023-06-14T02:03:41;10.43;;;7.38;;
63534;SDS011;55128;50.230;18.944;2023-06-14T02:08:42;9.73;;;7.75;;
63534;SDS011;55128;50.230;18.944;2023-06-14T02:13:42;9.77;;;8.15;;
63534;SDS011;55128;50.230;18.944;2023-06-14T02:18:43;11.38;;;8.18;;
63534;SDS011;55128;50.230;18.944;2023-06-14T02:23:44;10.02;;;8.43;;
63534;SDS011;55128;50.230;18.944;2023-06-14T02:28:44;11.63;;;8.10;;
63534;SDS011;55128;50.230;18.944;2023-06-14T02:33:45;11.02;;;7.63;;
63534;SDS011;55128;50.230;18.944;2023-06-14T02:38:45;9.57;;;7.93;;
63534;SDS011;55128;50.230;18.944;2023-06-14T02:43:46;10.25;;;8.43;;
63534;SDS011;55128;50.230;18.944;2023-06-14T02:48:47;12.90;;;9.67;;
63534;SDS011;55128;50.230;18.944;2023-06-14T02:53:47;9.88;;;8.27;;
63534;SDS011;55128;50.230;18.944;2023-06-14T02:58:47;11.20;;;7.97;;
63534;SDS011;55128;50.230;18.944;2023-06-14T03:03:48;11.85;;;8.52;;
63534;SDS011;55128;50.230;18.944;2023-06-14T03:08:49;10.32;;;8.57;;
63534;SDS011;55128;50.230;18.944;2023-06-14T03:13:49;12.93;;;9.50;;
63534;SDS011;55128;50.230;18.944;2023-06-14T03:18:51;13.02;;;8.77;;
63534;SDS011;55128;50.230;18.944;2023-06-14T03:23:52;10.63;;;8.07;;
63534;SDS011;55128;50.230;18.944;2023-06-14T03:28:53;11.07;;;8.65;;
63534;SDS011;55128;50.230;18.944;2023-06-14T03:33:53;13.80;;;8.57;;
63534;SDS011;55128;50.230;18.944;2023-06-14T03:38:53;14.02;;;9.88;;
63534;SDS011;55128;50.230;18.944;2023-06-14T03:43:55;11.57;;;9.50;;
63534;SDS011;55128;50.230;18.944;2023-06-14T03:48:55;14.10;;;9.95;;
63534;SDS011;55128;50.230;18.944;2023-06-14T03:53:55;13.73;;;10.70;;
63534;SDS011;55128;50.230;18.944;2023-06-14T03:58:56;13.77;;;10.03;;
63534;SDS011;55128;50.230;18.944;2023-06-14T04:03:56;12.63;;;9.73;;
63534;SDS011;55128;50.230;18.944;2023-06-14T04:08:58;13.15;;;9.68;;
63534;SDS011;55128;50.230;18.944;2023-06-14T04:14:03;13.77;;;10.10;;
63534;SDS011;55128;50.230;18.944;2023-06-14T04:19:03;12.95;;;9.60;;
63534;SDS011;55128;50.230;18.944;2023-06-14T04:24:04;21.87;;;16.07;;
63534;SDS011;55128;50.230;18.944;2023-06-14T04:29:04;11.07;;;9.60;;
63534;SDS011;55128;50.230;18.944;2023-06-14T04:34:05;14.05;;;9.70;;
63534;SDS011;55128;50.230;18.944;2023-06-14T04:39:07;13.85;;;9.90;;
63534;SDS011;55128;50.230;18.944;2023-06-14T04:44:07;12.73;;;10.13;;
63534;SDS011;55128;50.230;18.944;2023-06-14T04:49:10;13.88;;;10.27;;
63534;SDS011;55128;50.230;18.944;2023-06-14T04:54:14;14.63;;;10.75;;
63534;SDS011;55128;50.230;18.944;2023-06-14T04:59:14;21.33;;;17.13;;
63534;SDS011;55128;50.230;18.944;2023-06-14T05:04:17;14.23;;;10.70;;
63534;SDS011;55128;50.230;18.944;2023-06-14T05:09:18;14.73;;;11.45;;
63534;SDS011;55128;50.230;18.944;2023-06-14T05:14:19;17.30;;;12.05;;
63534;SDS011;55128;50.230;18.944;2023-06-14T05:19:20;15.20;;;10.80;;
63534;SDS011;55128;50.230;18.944;2023-06-14T05:24:20;15.55;;;11.35;;
63534;SDS011;55128;50.230;18.944;2023-06-14T05:29:21;15.17;;;10.50;;
63534;SDS011;55128;50.230;18.944;2023-06-14T05:34:21;15.20;;;11.40;;
63534;SDS011;55128;50.230;18.944;2023-06-14T05:39:21;14.75;;;11.13;;
63534;SDS011;55128;50.230;18.944;2023-06-14T05:44:22;14.00;;;10.63;;
63534;SDS011;55128;50.230;18.944;2023-06-14T05:49:22;14.90;;;10.33;;
63534;SDS011;55128;50.230;18.944;2023-06-14T05:54:22;16.27;;;12.00;;
63534;SDS011;55128;50.230;18.944;2023-06-14T05:59:22;15.18;;;11.05;;
63534;SDS011;55128;50.230;18.944;2023-06-14T06:04:23;12.87;;;10.80;;
63534;SDS011;55128;50.230;18.944;2023-06-14T06:09:23;15.73;;;11.57;;
63534;SDS011;55128;50.230;18.944;2023-06-14T06:14:24;16.05;;;11.13;;
63534;SDS011;55128;50.230;18.944;2023-06-14T06:19:24;15.85;;;10.55;;
63534;SDS011;55128;50.230;18.944;2023-06-14T06:24:25;19.85;;;11.65;;
63534;SDS011;55128;50.230;18.944;2023-06-14T06:29:25;18.00;;;11.30;;
63534;SDS011;55128;50.230;18.944;2023-06-14T06:34:26;16.55;;;12.20;;
63534;SDS011;55128;50.230;18.944;2023-06-14T06:39:26;19.15;;;12.68;;
63534;SDS011;55128;50.230;18.944;2023-06-14T06:44:27;17.03;;;11.23;;
63534;SDS011;55128;50.230;18.944;2023-06-14T06:49:27;16.77;;;12.18;;
63534;SDS011;55128;50.230;18.944;2023-06-14T06:54:27;17.17;;;12.20;;
63534;SDS011;55128;50.230;18.944;2023-06-14T06:59:28;18.20;;;13.50;;
63534;SDS011;55128;50.230;18.944;2023-06-14T07:04:28;19.90;;;14.32;;
63534;SDS011;55128;50.230;18.944;2023-06-14T07:09:29;20.38;;;14.10;;
63534;SDS011;55128;50.230;18.944;2023-06-14T07:14:29;21.15;;;15.38;;
63534;SDS011;55128;50.230;18.944;2023-06-14T07:19:30;18.48;;;13.95;;
63534;SDS011;55128;50.230;18.944;2023-06-14T07:24:31;17.25;;;13.73;;
63534;SDS011;55128;50.230;18.944;2023-06-14T07:29:32;20.73;;;14.30;;
63534;SDS011;55128;50.230;18.944;2023-06-14T07:34:32;17.70;;;13.33;;
63534;SDS011;55128;50.230;18.944;2023-06-14T07:39:33;15.38;;;12.13;;
63534;SDS011;55128;50.230;18.944;2023-06-14T07:44:34;8.40;;;6.32;;
63534;SDS011;55128;50.230;18.944;2023-06-14T07:49:34;5.50;;;4.38;;
63534;SDS011;55128;50.230;18.944;2023-06-14T07:54:35;4.70;;;4.20;;
63534;SDS011;55128;50.230;18.944;2023-06-14T07:59:36;5.60;;;3.65;;
63534;SDS011;55128;50.230;18.944;2023-06-14T08:04:36;3.87;;;3.47;;
63534;SDS011;55128;50.230;18.944;2023-06-14T08:09:36;4.55;;;3.92;;
63534;SDS011;55128;50.230;18.944;2023-06-14T08:14:38;4.72;;;4.20;;
63534;SDS011;55128;50.230;18.944;2023-06-14T08:19:39;4.90;;;3.55;;
63534;SDS011;55128;50.230;18.944;2023-06-14T08:24:41;4.47;;;3.75;;
63534;SDS011;55128;50.230;18.944;2023-06-14T08:29:41;4.88;;;4.07;;
63534;SDS011;55128;50.230;18.944;2023-06-14T08:34:42;5.72;;;4.68;;
63534;SDS011;55128;50.230;18.944;2023-06-14T08:39:42;6.70;;;4.45;;
63534;SDS011;55128;50.230;18.944;2023-06-14T08:44:44;7.65;;;5.00;;
63534;SDS011;55128;50.230;18.944;2023-06-14T08:49:45;12.02;;;9.43;;
63534;SDS011;55128;50.230;18.944;2023-06-14T08:54:48;10.95;;;8.77;;
63534;SDS011;55128;50.230;18.944;2023-06-14T08:59:51;6.97;;;6.28;;
63534;SDS011;55128;50.230;18.944;2023-06-14T09:04:53;8.93;;;8.02;;
63534;SDS011;55128;50.230;18.944;2023-06-14T09:10:10;9.57;;;8.57;;
63534;SDS011;55128;50.230;18.944;2023-06-14T09:15:15;9.55;;;7.97;;
63534;SDS011;55128;50.230;18.944;2023-06-14T09:20:15;9.95;;;8.50;;
63534;SDS011;55128;50.230;18.944;2023-06-14T09:25:18;9.18;;;8.15;;
63534;SDS011;55128;50.230;18.944;2023-06-14T09:30:19;10.23;;;8.63;;
63534;SDS011;55128;50.230;18.944;2023-06-14T09:35:21;9.35;;;7.80;;
63534;SDS011;55128;50.230;18.944;2023-06-14T09:40:21;8.15;;;7.13;;
63534;SDS011;55128;50.230;18.944;2023-06-14T09:45:22;8.43;;;7.40;;
63534;SDS011;55128;50.230;18.944;2023-06-14T09:50:22;8.75;;;6.65;;
63534;SDS011;55128;50.230;18.944;2023-06-14T09:55:22;7.68;;;6.88;;
63534;SDS011;55128;50.230;18.944;2023-06-14T10:00:26;6.80;;;6.18;;
63534;SDS011;55128;50.230;18.944;2023-06-14T10:05:27;7.50;;;5.47;;
63534;SDS011;55128;50.230;18.944;2023-06-14T10:10:28;7.35;;;6.05;;
63534;SDS011;55128;50.230;18.944;2023-06-14T10:20:58;6.75;;;6.15;;
63534;SDS011;55128;50.230;18.944;2023-06-14T10:26:00;6.63;;;6.03;;
63534;SDS011;55128;50.230;18.944;2023-06-14T10:31:07;6.85;;;6.15;;
63534;SDS011;55128;50.230;18.944;2023-06-14T10:41:22;5.57;;;5.03;;
63534;SDS011;55128;50.230;18.944;2023-06-14T10:46:23;4.90;;;4.50;;
63534;SDS011;55128;50.230;18.944;2023-06-14T10:51:29;11.57;;;8.10;;
63534;SDS011;55128;50.230;18.944;2023-06-14T10:56:52;7.15;;;6.28;;
63534;SDS011;55128;50.230;18.944;2023-06-14T11:08:12;5.25;;;4.70;;
63534;SDS011;55128;50.230;18.944;2023-06-14T11:13:16;4.80;;;3.90;;
63534;SDS011;55128;50.230;18.944;2023-06-14T11:18:17;4.10;;;3.70;;
63534;SDS011;55128;50.230;18.944;2023-06-14T11:23:17;4.70;;;4.15;;
63534;SDS011;55128;50.230;18.944;2023-06-14T11:28:18;4.10;;;3.70;;
63534;SDS011;55128;50.230;18.944;2023-06-14T11:33:21;4.20;;;3.60;;
63534;SDS011;55128;50.230;18.944;2023-06-14T11:38:22;3.45;;;2.80;;
63534;SDS011;55128;50.230;18.944;2023-06-14T11:43:23;5.07;;;3.50;;
63534;SDS011;55128;50.230;18.944;2023-06-14T11:48:46;3.92;;;2.80;;
63534;SDS011;55128;50.230;18.944;2023-06-14T11:53:46;3.85;;;3.20;;
63534;SDS011;55128;50.230;18.944;2023-06-14T11:58:46;7.72;;;4.25;;
63534;SDS011;55128;50.230;18.944;2023-06-14T12:03:47;5.72;;;3.08;;
63534;SDS011;55128;50.230;18.944;2023-06-14T12:08:49;6.53;;;3.40;;
63534;SDS011;55128;50.230;18.944;2023-06-14T12:13:50;7.10;;;4.10;;
63534;SDS011;55128;50.230;18.944;2023-06-14T12:18:50;8.30;;;4.23;;
63534;SDS011;55128;50.230;18.944;2023-06-14T12:23:53;10.80;;;4.93;;
63534;SDS011;55128;50.230;18.944;2023-06-14T12:28:54;5.32;;;4.03;;
63534;SDS011;55128;50.230;18.944;2023-06-14T12:33:54;5.82;;;3.78;;
63534;SDS011;55128;50.230;18.944;2023-06-14T12:38:54;4.30;;;3.90;;
63534;SDS011;55128;50.230;18.944;2023-06-14T12:43:55;4.68;;;3.70;;
63534;SDS011;55128;50.230;18.944;2023-06-14T12:48:57;6.07;;;3.50;;
63534;SDS011;55128;50.230;18.944;2023-06-14T12:53:58;5.13;;;3.53;;
63534;SDS011;55128;50.230;18.944;2023-06-14T12:58:58;4.30;;;3.90;;
63534;SDS011;55128;50.230;18.944;2023-06-14T13:03:58;4.93;;;3.50;;
63534;SDS011;55128;50.230;18.944;2023-06-14T13:08:59;4.95;;;4.03;;
63534;SDS011;55128;50.230;18.944;2023-06-14T13:14:00;5.32;;;3.67;;
63534;SDS011;55128;50.230;18.944;2023-06-14T13:19:01;6.37;;;3.17;;
63534;SDS011;55128;50.230;18.944;2023-06-14T13:24:02;2.50;;;1.65;;
63534;SDS011;55128;50.230;18.944;2023-06-14T13:29:02;2.47;;;1.90;;
63534;SDS011;55128;50.230;18.944;2023-06-14T13:34:03;3.10;;;1.75;;
63534;SDS011;55128;50.230;18.944;2023-06-14T13:39:04;2.97;;;1.90;;
63534;SDS011;55128;50.230;18.944;2023-06-14T13:44:04;3.03;;;1.90;;
63534;SDS011;55128;50.230;18.944;2023-06-14T13:49:05;4.63;;;1.80;;
63534;SDS011;55128;50.230;18.944;2023-06-14T13:54:06;3.13;;;2.03;;
63534;SDS011;55128;50.230;18.944;2023-06-14T13:59:06;4.00;;;2.67;;
63534;SDS011;55128;50.230;18.944;2023-06-14T14:04:07;4.15;;;2.58;;
63534;SDS011;55128;50.230;18.944;2023-06-14T14:09:07;5.40;;;3.65;;
63534;SDS011;55128;50.230;18.944;2023-06-14T14:14:09;4.13;;;2.63;;
63534;SDS011;55128;50.230;18.944;2023-06-14T14:19:10;4.05;;;2.20;;
63534;SDS011;55128;50.230;18.944;2023-06-14T14:24:10;3.28;;;2.35;;
63534;SDS011;55128;50.230;18.944;2023-06-14T14:29:11;4.20;;;2.83;;
63534;SDS011;55128;50.230;18.944;2023-06-14T14:34:11;4.15;;;2.50;;
63534;SDS011;55128;50.230;18.944;2023-06-14T14:39:12;4.32;;;2.83;;
63534;SDS011;55128;50.230;18.944;2023-06-14T14:44:12;4.93;;;3.07;;
63534;SDS011;55128;50.230;18.944;2023-06-14T14:49:13;4.00;;;3.20;;
63534;SDS011;55128;50.230;18.944;2023-06-14T14:54:13;5.20;;;3.30;;
63534;SDS011;55128;50.230;18.944;2023-06-14T14:59:14;5.32;;;3.58;;
63534;SDS011;55128;50.230;18.944;2023-06-14T15:04:14;4.25;;;3.28;;
63534;SDS011;55128;50.230;18.944;2023-06-14T15:09:14;5.87;;;3.10;;
63534;SDS011;55128;50.230;18.944;2023-06-14T15:14:15;5.43;;;3.45;;
63534;SDS011;55128;50.230;18.944;2023-06-14T15:19:17;4.00;;;3.60;;
63534;SDS011;55128;50.230;18.944;2023-06-14T15:24:18;4.10;;;3.08;;
63534;SDS011;55128;50.230;18.944;2023-06-14T15:29:18;3.80;;;2.60;;
63534;SDS011;55128;50.230;18.944;2023-06-14T15:34:19;3.08;;;2.30;;
63534;SDS011;55128;50.230;18.944;2023-06-14T15:39:19;5.15;;;2.63;;
63534;SDS011;55128;50.230;18.944;2023-06-14T15:44:20;4.90;;;2.90;;
63534;SDS011;55128;50.230;18.944;2023-06-14T15:49:20;3.60;;;3.00;;
63534;SDS011;55128;50.230;18.944;2023-06-14T15:54:21;3.53;;;2.77;;
63534;SDS011;55128;50.230;18.944;2023-06-14T15:59:21;5.40;;;3.42;;
63534;SDS011;55128;50.230;18.944;2023-06-14T16:04:21;4.53;;;3.42;;
63534;SDS011;55128;50.230;18.944;2023-06-14T16:09:22;4.45;;;2.92;;
63534;SDS011;55128;50.230;18.944;2023-06-14T16:14:24;4.25;;;3.40;;
63534;SDS011;55128;50.230;18.944;2023-06-14T16:19:24;3.70;;;3.20;;
63534;SDS011;55128;50.230;18.944;2023-06-14T16:24:25;3.55;;;3.13;;
63534;SDS011;55128;50.230;18.944;2023-06-14T16:29:25;3.47;;;2.87;;
63534;SDS011;55128;50.230;18.944;2023-06-14T16:34:26;3.35;;;2.30;;
63534;SDS011;55128;50.230;18.944;2023-06-14T16:39:27;3.22;;;2.88;;
63534;SDS011;55128;50.230;18.944;2023-06-14T16:44:27;4.35;;;2.55;;
63534;SDS011;55128;50.230;18.944;2023-06-14T16:49:28;3.28;;;2.80;;
63534;SDS011;55128;50.230;18.944;2023-06-14T16:54:28;3.95;;;3.00;;
63534;SDS011;55128;50.230;18.944;2023-06-14T16:59:29;3.73;;;3.20;;
63534;SDS011;55128;50.230;18.944;2023-06-14T17:04:30;4.10;;;2.90;;
63534;SDS011;55128;50.230;18.944;2023-06-14T17:09:31;6.10;;;3.72;;
63534;SDS011;55128;50.230;18.944;2023-06-14T17:14:32;3.97;;;3.17;;
63534;SDS011;55128;50.230;18.944;2023-06-14T17:19:32;3.90;;;3.50;;
63534;SDS011;55128;50.230;18.944;2023-06-14T17:24:33;4.97;;;3.58;;
63534;SDS011;55128;50.230;18.944;2023-06-14T17:29:33;4.88;;;4.13;;
63534;SDS011;55128;50.230;18.944;2023-06-14T17:34:33;9.15;;;5.05;;
63534;SDS011;55128;50.230;18.944;2023-06-14T17:39:34;8.50;;;4.78;;
63534;SDS011;55128;50.230;18.944;2023-06-14T17:44:36;6.55;;;4.85;;
63534;SDS011;55128;50.230;18.944;2023-06-14T17:49:36;5.32;;;4.75;;
63534;SDS011;55128;50.230;18.944;2023-06-14T17:54:37;5.25;;;4.75;;
63534;SDS011;55128;50.230;18.944;2023-06-14T17:59:37;8.13;;;4.82;;
63534;SDS011;55128;50.230;18.944;2023-06-14T18:04:37;7.40;;;5.55;;
63534;SDS011;55128;50.230;18.944;2023-06-14T18:09:38;7.03;;;5.13;;
63534;SDS011;55128;50.230;18.944;2023-06-14T18:14:38;6.73;;;4.50;;
63534;SDS011;55128;50.230;18.944;2023-06-14T18:19:38;5.50;;;4.47;;
63534;SDS011;55128;50.230;18.944;2023-06-14T18:24:39;5.82;;;4.38;;
63534;SDS011;55128;50.230;18.944;2023-06-14T18:29:40;6.07;;;4.30;;
63534;SDS011;55128;50.230;18.944;2023-06-14T18:34:40;5.17;;;4.43;;
63534;SDS011;55128;50.230;18.944;2023-06-14T18:39:40;6.60;;;4.23;;
63534;SDS011;55128;50.230;18.944;2023-06-14T18:44:41;5.35;;;4.75;;
63534;SDS011;55128;50.230;18.944;2023-06-14T18:49:41;7.55;;;4.82;;
63534;SDS011;55128;50.230;18.944;2023-06-14T18:54:41;5.78;;;4.60;;
63534;SDS011;55128;50.230;18.944;2023-06-14T18:59:42;4.88;;;4.38;;
63534;SDS011;55128;50.230;18.944;2023-06-14T19:04:43;6.20;;;4.90;;
63534;SDS011;55128;50.230;18.944;2023-06-14T19:09:44;6.72;;;4.85;;
63534;SDS011;55128;50.230;18.944;2023-06-14T19:14:44;6.70;;;5.07;;
63534;SDS011;55128;50.230;18.944;2023-06-14T19:19:45;6.05;;;4.70;;
63534;SDS011;55128;50.230;18.944;2023-06-14T19:24:45;6.00;;;4.63;;
63534;SDS011;55128;50.230;18.944;2023-06-14T19:29:45;6.18;;;4.50;;
63534;SDS011;55128;50.230;18.944;2023-06-14T19:34:46;6.90;;;5.13;;
63534;SDS011;55128;50.230;18.944;2023-06-14T19:39:46;6.37;;;5.63;;
63534;SDS011;55128;50.230;18.944;2023-06-14T19:44:46;8.13;;;5.15;;
63534;SDS011;55128;50.230;18.944;2023-06-14T19:49:47;7.83;;;6.40;;
63534;SDS011;55128;50.230;18.944;2023-06-14T19:54:47;6.63;;;5.70;;
63534;SDS011;55128;50.230;18.944;2023-06-14T19:59:47;6.83;;;6.10;;
63534;SDS011;55128;50.230;18.944;2023-06-14T20:04:48;16.88;;;12.70;;
63534;SDS011;55128;50.230;18.944;2023-06-14T20:09:48;11.70;;;8.98;;
63534;SDS011;55128;50.230;18.944;2023-06-14T20:14:49;12.18;;;8.65;;
63534;SDS011;55128;50.230;18.944;2023-06-14T20:19:50;9.80;;;7.45;;
63534;SDS011;55128;50.230;18.944;2023-06-14T20:24:50;7.80;;;6.80;;
63534;SDS011;55128;50.230;18.944;2023-06-14T20:29:51;8.75;;;7.03;;
63534;SDS011;55128;50.230;18.944;2023-06-14T20:34:53;8.25;;;6.80;;
63534;SDS011;55128;50.230;18.944;2023-06-14T20:39:54;7.68;;;6.50;;
63534;SDS011;55128;50.230;18.944;2023-06-14T20:45:03;8.88;;;7.10;;
63534;SDS011;55128;50.230;18.944;2023-06-14T20:50:04;7.97;;;7.10;;
63534;SDS011;55128;50.230;18.944;2023-06-14T20:55:05;9.38;;;7.03;;
63534;SDS011;55128;50.230;18.944;2023-06-14T21:00:06;8.40;;;7.03;;
63534;SDS011;55128;50.230;18.944;2023-06-14T21:10:11;10.02;;;7.20;;
63534;SDS011;55128;50.230;18.944;2023-06-14T21:15:11;9.97;;;8.03;;
63534;SDS011;55128;50.230;18.944;2023-06-14T21:20:11;8.25;;;7.45;;
63534;SDS011;55128;50.230;18.944;2023-06-14T21:25:12;8.48;;;7.40;;
63534;SDS011;55128;50.230;18.944;2023-06-14T21:30:15;8.75;;;7.85;;
63534;SDS011;55128;50.230;18.944;2023-06-14T21:35:16;8.80;;;7.22;;
63534;SDS011;55128;50.230;18.944;2023-06-14T21:40:16;8.60;;;6.80;;
63534;SDS011;55128;50.230;18.944;2023-06-14T21:45:18;8.02;;;7.05;;
63534;SDS011;55128;50.230;18.944;2023-06-14T21:50:18;8.50;;;7.60;;
63534;SDS011;55128;50.230;18.944;2023-06-14T21:55:18;9.10;;;7.17;;
63534;SDS011;55128;50.230;18.944;2023-06-14T22:05:24;8.63;;;7.70;;
63534;SDS011;55128;50.230;18.944;2023-06-14T22:10:25;10.57;;;7.80;;
63534;SDS011;55128;50.230;18.944;2023-06-14T22:15:26;8.98;;;7.60;;
63534;SDS011;55128;50.230;18.944;2023-06-14T22:20:27;9.25;;;8.05;;
63534;SDS011;55128;50.230;18.944;2023-06-14T22:25:29;8.25;;;7.45;;
63534;SDS011;55128;50.230;18.944;2023-06-14T22:30:30;9.13;;;8.00;;
63534;SDS011;55128;50.230;18.944;2023-06-14T22:35:32;10.43;;;7.65;;
63534;SDS011;55128;50.230;18.944;2023-06-14T22:40:33;9.43;;;8.45;;
63534;SDS011;55128;50.230;18.944;2023-06-14T22:45:33;10.03;;;8.17;;
63534;SDS011;55128;50.230;18.944;2023-06-14T22:50:37;8.38;;;7.57;;
63534;SDS011;55128;50.230;18.944;2023-06-14T22:55:38;9.13;;;7.50;;
63534;SDS011;55128;50.230;18.944;2023-06-14T23:00:38;9.18;;;7.47;;
63534;SDS011;55128;50.230;18.944;2023-06-14T23:05:39;9.45;;;8.45;;
63534;SDS011;55128;50.230;18.944;2023-06-14T23:10:41;9.50;;;7.53;;
63534;SDS011;55128;50.230;18.944;2023-06-14T23:15:42;11.77;;;8.45;;
63534;SDS011;55128;50.230;18.944;2023-06-14T23:20:42;11.35;;;8.27;;
63534;SDS011;55128;50.230;18.944;2023-06-14T23:25:43;9.65;;;8.63;;
63534;SDS011;55128;50.230;18.944;2023-06-14T23:30:45;9.90;;;8.75;;
63534;SDS011;55128;50.230;18.944;2023-06-14T23:35:45;14.48;;;9.32;;
63534;SDS011;55128;50.230;18.944;2023-06-14T23:40:47;9.27;;;7.30;;
63534;SDS011;55128;50.230;18.944;2023-06-14T23:45:49;8.70;;;7.78;;
63534;SDS011;55128;50.230;18.944;2023-06-14T23:50:53;10.68;;;9.18;;
63534;SDS011;55128;50.230;18.944;2023-06-14T23:55:54;10.05;;;9.05;;
